createdAt,value
2019-03-22T00:00:18.395Z,87.50
2019-03-22T00:02:49.184Z,87.24
2019-03-22T00:05:19.870Z,87.39
2019-03-22T00:07:51.428Z,87.48
2019-03-22T00:10:22.122Z,87.44
2019-03-22T00:12:53.156Z,87.32
2019-03-22T00:15:24.091Z,87.30
2019-03-22T00:17:54.784Z,87.35
2019-03-22T00:20:25.443Z,87.26
2019-03-22T00:22:56.181Z,87.10
2019-03-22T00:25:26.865Z,87.00
2019-03-22T00:27:58.158Z,86.93
2019-03-22T00:30:29.385Z,87.06
2019-03-22T00:33:00.112Z,87.17
2019-03-22T00:35:31.084Z,87.55
2019-03-22T00:38:02.069Z,87.83
2019-03-22T00:40:32.831Z,87.86
2019-03-22T00:43:04.128Z,87.69
2019-03-22T00:45:34.813Z,87.96
2019-03-22T00:48:05.837Z,88.40
2019-03-22T00:50:36.813Z,89.06
2019-03-22T00:53:07.772Z,89.14
2019-03-22T00:55:38.487Z,89.13
2019-03-22T00:58:09.527Z,89.63
2019-03-22T01:00:40.609Z,89.99
2019-03-22T01:03:11.328Z,90.26
2019-03-22T01:05:42.179Z,90.53
2019-03-22T01:08:13.168Z,90.79
2019-03-22T01:10:44.224Z,90.70
2019-03-22T01:13:15.099Z,90.44
2019-03-22T01:15:45.767Z,90.38
2019-03-22T01:18:16.551Z,90.20
2019-03-22T01:20:47.239Z,90.21
2019-03-22T01:23:17.968Z,90.03
2019-03-22T01:25:48.655Z,89.95
2019-03-22T01:28:19.337Z,89.78
2019-03-22T01:30:50.433Z,89.71
2019-03-22T01:33:21.142Z,89.74
2019-03-22T01:35:51.824Z,89.69
2019-03-22T01:38:22.542Z,89.44
2019-03-22T01:40:53.267Z,89.26
2019-03-22T01:43:24.050Z,89.06
2019-03-22T01:45:54.764Z,88.91
2019-03-22T01:48:25.416Z,88.61
2019-03-22T01:50:56.351Z,88.45
2019-03-22T01:53:27.079Z,88.31
2019-03-22T01:55:58.081Z,88.26
2019-03-22T01:58:28.820Z,88.25
2019-03-22T02:00:59.514Z,88.28
2019-03-22T02:03:30.238Z,88.17
2019-03-22T02:06:00.945Z,87.80
2019-03-22T02:08:31.638Z,87.80
2019-03-22T02:11:02.359Z,87.97
2019-03-22T02:13:33.034Z,88.19
2019-03-22T02:16:04.160Z,88.71
2019-03-22T02:18:34.821Z,89.00
2019-03-22T02:21:05.785Z,88.99
2019-03-22T02:23:36.479Z,88.98
2019-03-22T02:26:07.323Z,89.17
2019-03-22T02:28:38.011Z,89.14
2019-03-22T02:31:08.747Z,89.09
2019-03-22T02:33:39.435Z,89.05
2019-03-22T02:36:10.148Z,88.99
2019-03-22T02:38:40.877Z,88.96
2019-03-22T02:41:11.543Z,88.75
2019-03-22T02:43:42.255Z,88.47
2019-03-22T02:46:12.920Z,88.12
2019-03-22T02:48:44.146Z,87.83
2019-03-22T02:51:15.054Z,87.86
2019-03-22T02:53:45.759Z,88.19
2019-03-22T02:56:16.486Z,88.49
2019-03-22T02:58:47.751Z,88.56
2019-03-22T03:01:18.502Z,88.56
2019-03-22T03:03:49.158Z,88.60
2019-03-22T03:06:19.836Z,88.96
2019-03-22T03:08:50.898Z,89.31
2019-03-22T03:11:21.552Z,89.55
2019-03-22T03:13:52.484Z,89.63
2019-03-22T03:16:23.219Z,89.91
2019-03-22T03:18:54.247Z,90.21
2019-03-22T03:21:24.920Z,90.90
2019-03-22T03:23:55.667Z,91.11
2019-03-22T03:26:26.349Z,91.34
2019-03-22T03:28:57.413Z,91.73
2019-03-22T03:31:28.109Z,92.09
2019-03-22T03:33:58.867Z,92.29
2019-03-22T03:36:29.548Z,92.77
2019-03-22T03:39:00.240Z,93.06
2019-03-22T03:41:30.907Z,93.19
2019-03-22T03:44:01.686Z,93.21
2019-03-22T03:46:32.335Z,93.18
2019-03-22T03:49:03.032Z,93.18
2019-03-22T03:51:39.788Z,92.99
2019-03-22T03:54:10.522Z,92.80
2019-03-22T03:56:41.239Z,92.57
2019-03-22T03:59:12.373Z,92.25
2019-03-22T04:01:43.078Z,92.13
2019-03-22T04:04:13.736Z,91.90
2019-03-22T04:06:44.463Z,91.71
2019-03-22T04:09:15.145Z,91.64
2019-03-22T04:11:45.841Z,91.46
2019-03-22T04:14:16.950Z,91.37
2019-03-22T04:16:47.688Z,91.35
2019-03-22T04:19:19.087Z,91.48
2019-03-22T04:21:49.761Z,91.60
2019-03-22T04:24:20.478Z,91.69
2019-03-22T04:26:51.159Z,91.83
2019-03-22T04:29:22.168Z,91.96
2019-03-22T04:31:52.878Z,92.23
2019-03-22T04:34:23.897Z,92.41
2019-03-22T04:36:54.612Z,92.58
2019-03-22T04:39:25.628Z,92.68
2019-03-22T04:41:56.345Z,92.79
2019-03-22T04:44:27.491Z,92.77
2019-03-22T04:46:58.324Z,92.85
2019-03-22T04:49:29.960Z,93.31
2019-03-22T04:52:00.839Z,93.74
2019-03-22T04:54:34.728Z,94.07
2019-03-22T04:57:07.758Z,94.30
2019-03-22T04:59:39.863Z,94.46
2019-03-22T05:02:11.763Z,94.58
2019-03-22T05:04:45.277Z,94.61
2019-03-22T05:07:16.393Z,94.54
2019-03-22T05:09:47.945Z,94.35
2019-03-22T05:12:21.473Z,94.29
2019-03-22T05:14:53.462Z,94.23
2019-03-22T05:17:25.385Z,94.31
2019-03-22T05:19:59.118Z,94.38
2019-03-22T05:22:31.736Z,94.37
2019-03-22T05:25:04.819Z,94.44
2019-03-22T05:27:37.452Z,94.58
2019-03-22T05:30:11.536Z,94.74
2019-03-22T05:32:42.574Z,94.80
2019-03-22T05:35:13.624Z,94.71
2019-03-22T05:37:44.606Z,94.55
2019-03-22T05:40:15.304Z,94.47
2019-03-22T05:42:45.970Z,94.34
2019-03-22T05:45:16.893Z,94.01
2019-03-22T05:47:47.894Z,93.63
2019-03-22T05:50:19.127Z,93.02
2019-03-22T05:52:49.765Z,92.64
2019-03-22T05:55:20.453Z,92.72
2019-03-22T05:57:51.147Z,92.99
2019-03-22T06:00:22.428Z,93.50
2019-03-22T06:02:53.173Z,93.59
2019-03-22T06:05:23.898Z,93.61
2019-03-22T06:07:54.573Z,93.46
2019-03-22T06:10:25.229Z,93.42
2019-03-22T06:12:55.910Z,93.17
2019-03-22T06:15:26.609Z,93.02
2019-03-22T06:17:57.591Z,92.47
2019-03-22T06:20:28.251Z,91.45
2019-03-22T06:22:58.919Z,90.55
2019-03-22T06:25:29.632Z,89.81
2019-03-22T06:28:00.715Z,89.76
2019-03-22T06:30:31.385Z,89.18
2019-03-22T06:33:02.246Z,89.23
2019-03-22T06:35:33.256Z,89.70
2019-03-22T06:38:04.040Z,88.82
2019-03-22T06:40:34.694Z,89.32
2019-03-22T06:43:05.673Z,89.96
2019-03-22T06:45:36.717Z,90.42
2019-03-22T06:48:07.779Z,90.30
2019-03-22T06:50:38.772Z,90.28
2019-03-22T06:53:09.463Z,89.89
2019-03-22T06:55:40.966Z,89.93
2019-03-22T06:58:11.856Z,89.24
2019-03-22T07:00:42.846Z,88.65
2019-03-22T07:03:13.598Z,87.86
2019-03-22T07:05:44.723Z,86.84
2019-03-22T07:08:15.645Z,86.48
2019-03-22T07:10:46.266Z,87.21
2019-03-22T07:13:16.967Z,88.17
2019-03-22T07:15:47.607Z,88.28
2019-03-22T07:18:18.724Z,87.55
2019-03-22T07:20:49.806Z,87.46
2019-03-22T07:23:20.474Z,88.63
2019-03-22T07:25:51.678Z,88.31
2019-03-22T07:28:22.476Z,88.28
2019-03-22T07:30:53.158Z,87.78
2019-03-22T07:33:24.370Z,86.49
2019-03-22T07:35:55.096Z,84.95
2019-03-22T07:38:25.875Z,83.53
2019-03-22T07:40:56.559Z,81.71
2019-03-22T07:43:27.185Z,81.27
2019-03-22T07:45:57.898Z,82.36
2019-03-22T07:48:28.740Z,83.05
2019-03-22T07:50:59.858Z,82.39
2019-03-22T07:53:30.814Z,81.40
2019-03-22T07:56:01.625Z,80.52
2019-03-22T07:58:32.865Z,80.68
2019-03-22T08:01:03.712Z,78.56
2019-03-22T08:03:34.427Z,78.98
2019-03-22T08:07:11.165Z,78.39
2019-03-22T08:09:42.746Z,77.40
2019-03-22T08:12:13.413Z,76.58
2019-03-22T08:14:44.121Z,76.98
2019-03-22T08:17:15.116Z,76.66
2019-03-22T08:19:46.130Z,74.19
2019-03-22T08:22:16.792Z,73.06
2019-03-22T08:24:47.519Z,71.80
2019-03-22T08:27:18.414Z,72.84
2019-03-22T08:29:49.208Z,74.01
2019-03-22T08:32:19.879Z,71.83
2019-03-22T08:34:50.693Z,70.30
2019-03-22T08:37:23.599Z,70.10
2019-03-22T08:39:55.909Z,68.90
2019-03-22T08:42:27.189Z,68.66
2019-03-22T08:44:59.014Z,67.69
2019-03-22T08:47:34.315Z,67.52
2019-03-22T08:50:02.590Z,64.52
2019-03-22T08:52:33.633Z,65.73
2019-03-22T08:55:04.361Z,64.62
2019-03-22T08:57:35.208Z,65.41
2019-03-22T09:00:07.685Z,64.33
2019-03-22T09:02:38.725Z,64.43
2019-03-22T09:05:09.933Z,64.84
2019-03-22T09:07:41.081Z,63.86
2019-03-22T09:10:12.605Z,62.76
2019-03-22T09:12:43.300Z,63.04
2019-03-22T09:15:14.085Z,63.81
2019-03-22T09:17:44.751Z,63.58
2019-03-22T09:20:16.059Z,64.36
2019-03-22T09:22:47.027Z,62.61
2019-03-22T09:25:17.887Z,62.57
2019-03-22T09:27:48.850Z,62.53
2019-03-22T09:30:19.635Z,61.54
2019-03-22T09:32:50.345Z,58.04
2019-03-22T09:35:21.830Z,54.32
2019-03-22T09:37:52.497Z,49.73
2019-03-22T09:40:23.199Z,42.91
2019-03-22T09:42:53.911Z,40.20
2019-03-22T09:45:24.634Z,40.75
2019-03-22T09:47:55.837Z,39.88
2019-03-22T09:50:26.500Z,38.86
2019-03-22T09:52:57.238Z,36.57
2019-03-22T09:55:27.970Z,36.21
2019-03-22T09:57:58.766Z,36.33
2019-03-22T10:00:32.394Z,36.49
2019-03-22T10:03:03.953Z,37.91
2019-03-22T10:05:34.970Z,37.34
2019-03-22T10:08:05.713Z,37.16
2019-03-22T10:10:36.801Z,36.20
2019-03-22T10:13:07.478Z,36.51
2019-03-22T10:15:38.109Z,37.08
2019-03-22T10:18:09.085Z,36.44
2019-03-22T10:20:39.795Z,37.40
2019-03-22T10:23:10.452Z,37.91
2019-03-22T10:25:41.560Z,40.20
2019-03-22T10:28:12.373Z,38.14
2019-03-22T10:30:43.006Z,38.31
2019-03-22T10:33:22.719Z,36.16
2019-03-22T10:35:46.070Z,37.79
2019-03-22T10:38:30.715Z,37.40
2019-03-22T10:40:49.459Z,38.17
2019-03-22T10:43:20.144Z,36.76
2019-03-22T10:45:50.885Z,37.40
2019-03-22T10:48:21.936Z,36.79
2019-03-22T10:50:52.622Z,36.90
2019-03-22T10:53:23.353Z,38.16
2019-03-22T10:55:54.309Z,38.50
2019-03-22T10:58:25.302Z,40.86
2019-03-22T11:00:56.605Z,40.13
2019-03-22T11:03:27.977Z,41.04
2019-03-22T11:05:58.746Z,40.01
2019-03-22T11:08:29.461Z,39.83
2019-03-22T11:11:00.091Z,42.64
2019-03-22T11:13:31.080Z,43.16
2019-03-22T11:16:01.799Z,42.83
2019-03-22T11:18:37.374Z,41.27
2019-03-22T11:21:05.831Z,42.33
2019-03-22T11:23:36.523Z,42.44
2019-03-22T11:26:07.167Z,43.64
2019-03-22T11:28:37.980Z,44.72
2019-03-22T11:31:08.711Z,47.21
2019-03-22T11:33:39.457Z,48.95
2019-03-22T11:36:10.140Z,49.36
2019-03-22T11:38:41.101Z,48.93
2019-03-22T11:41:11.805Z,50.08
2019-03-22T11:43:42.612Z,51.58
2019-03-22T11:46:13.291Z,50.94
2019-03-22T11:48:44.335Z,50.64
2019-03-22T11:51:15.049Z,49.76
2019-03-22T11:53:46.113Z,48.58
2019-03-22T11:56:16.872Z,46.15
2019-03-22T11:58:47.651Z,47.49
2019-03-22T12:01:20.423Z,49.68
2019-03-22T12:03:50.664Z,50.39
2019-03-22T12:06:21.354Z,49.38
2019-03-22T12:08:52.056Z,49.75
2019-03-22T12:11:23.027Z,49.30
2019-03-22T12:13:53.760Z,48.95
2019-03-22T12:16:24.447Z,48.80
2019-03-22T12:18:55.176Z,48.58
2019-03-22T12:21:27.521Z,48.93
2019-03-22T12:23:58.219Z,49.22
2019-03-22T12:26:28.937Z,48.99
2019-03-22T12:28:59.611Z,48.64
2019-03-22T12:31:30.680Z,48.78
2019-03-22T12:34:01.357Z,47.96
2019-03-22T12:36:32.076Z,47.65
2019-03-22T12:39:03.585Z,47.73
2019-03-22T12:41:34.320Z,46.70
2019-03-22T12:44:16.151Z,47.56
2019-03-22T12:46:49.908Z,47.24
2019-03-22T12:49:20.578Z,46.70
2019-03-22T12:51:51.262Z,46.58
2019-03-22T12:54:21.928Z,45.51
2019-03-22T12:56:52.731Z,46.68
2019-03-22T12:59:23.380Z,45.57
2019-03-22T13:01:54.463Z,44.42
2019-03-22T13:04:25.403Z,43.69
2019-03-22T13:06:56.054Z,43.82
2019-03-22T13:09:27.010Z,43.96
2019-03-22T13:11:57.911Z,44.16
2019-03-22T13:14:29.313Z,43.65
2019-03-22T13:16:59.967Z,43.79
2019-03-22T13:19:30.666Z,42.88
2019-03-22T13:22:01.360Z,42.55
2019-03-22T13:24:32.320Z,43.71
2019-03-22T13:27:02.991Z,42.33
2019-03-22T13:29:33.831Z,42.38
2019-03-22T13:32:04.801Z,42.91
2019-03-22T13:34:35.512Z,41.85
2019-03-22T13:37:06.157Z,42.16
2019-03-22T13:39:36.882Z,41.58
2019-03-22T13:42:07.574Z,41.53
2019-03-22T13:44:38.327Z,40.91
2019-03-22T13:47:09.049Z,40.76
2019-03-22T13:49:39.743Z,41.50
2019-03-22T13:52:10.509Z,41.94
2019-03-22T13:54:41.363Z,41.47
2019-03-22T13:57:12.434Z,40.54
2019-03-22T13:59:43.180Z,40.87
2019-03-22T14:02:13.819Z,40.65
2019-03-22T14:04:44.507Z,41.00
2019-03-22T14:07:15.169Z,41.90
2019-03-22T14:09:45.857Z,41.60
2019-03-22T14:12:16.522Z,41.43
2019-03-22T14:14:47.185Z,40.85
2019-03-22T14:17:17.941Z,41.29
2019-03-22T14:19:48.634Z,41.75
2019-03-22T14:22:19.362Z,41.85
2019-03-22T14:24:50.075Z,42.12
2019-03-22T14:27:20.812Z,42.01
2019-03-22T14:29:51.547Z,42.15
2019-03-22T14:32:22.462Z,42.25
2019-03-22T14:34:53.100Z,42.55
2019-03-22T14:37:23.803Z,41.96
2019-03-22T14:39:54.493Z,42.45
2019-03-22T14:42:25.226Z,42.18
2019-03-22T14:44:56.695Z,42.27
2019-03-22T14:47:27.390Z,42.96
2019-03-22T14:49:58.094Z,42.77
2019-03-22T14:52:28.770Z,42.79
2019-03-22T14:54:59.445Z,42.94
2019-03-22T14:57:30.396Z,43.07
2019-03-22T15:00:01.120Z,42.61
2019-03-22T15:02:31.795Z,42.77
2019-03-22T15:05:02.482Z,41.62
2019-03-22T15:07:33.148Z,42.44
2019-03-22T15:10:04.701Z,42.69
2019-03-22T15:12:35.432Z,43.29
2019-03-22T15:15:33.113Z,44.06
2019-03-22T15:18:25.592Z,43.75
2019-03-22T15:21:27.646Z,43.93
2019-03-22T15:24:27.940Z,43.66
2019-03-22T15:27:16.548Z,43.57
2019-03-22T15:30:05.294Z,43.72
2019-03-22T15:32:53.969Z,43.76
2019-03-22T15:35:42.738Z,44.26
2019-03-22T15:38:32.136Z,44.51
2019-03-22T15:41:03.049Z,45.08
2019-03-22T15:43:33.737Z,45.56
2019-03-22T15:46:04.436Z,45.27
2019-03-22T15:48:35.425Z,45.50
2019-03-22T15:51:06.380Z,45.82
2019-03-22T15:53:37.435Z,45.42
2019-03-22T15:56:08.133Z,45.90
2019-03-22T15:58:39.928Z,46.42
2019-03-22T16:01:10.645Z,46.87
2019-03-22T16:03:44.406Z,46.73
2019-03-22T16:06:14.168Z,47.24
2019-03-22T16:08:44.939Z,47.12
2019-03-22T16:11:15.624Z,47.42
2019-03-22T16:13:46.903Z,48.14
2019-03-22T16:16:17.680Z,48.91
2019-03-22T16:18:48.398Z,49.60
2019-03-22T16:21:19.483Z,50.01
2019-03-22T16:23:50.140Z,51.22
2019-03-22T16:26:20.827Z,51.79
2019-03-22T16:28:51.752Z,51.03
2019-03-22T16:31:22.456Z,52.44
2019-03-22T16:33:54.736Z,51.14
2019-03-22T16:36:25.813Z,52.10
2019-03-22T16:38:56.899Z,51.94
2019-03-22T16:41:27.663Z,52.19
2019-03-22T16:43:58.319Z,52.71
2019-03-22T16:46:28.990Z,53.50
2019-03-22T16:49:00.789Z,53.45
2019-03-22T16:51:31.544Z,54.00
2019-03-22T16:54:02.568Z,53.90
2019-03-22T16:56:33.967Z,54.09
2019-03-22T16:59:04.656Z,54.73
2019-03-22T17:01:35.323Z,55.27
2019-03-22T17:04:06.632Z,55.92
2019-03-22T17:06:37.999Z,57.14
2019-03-22T17:09:09.575Z,57.73
2019-03-22T17:11:40.270Z,58.09
2019-03-22T17:14:10.924Z,58.20
2019-03-22T17:16:41.599Z,58.59
2019-03-22T17:19:12.334Z,59.03
2019-03-22T17:21:43.132Z,59.41
2019-03-22T17:24:14.004Z,60.19
2019-03-22T17:26:45.610Z,61.09
2019-03-22T17:29:16.385Z,61.62
2019-03-22T17:31:47.374Z,62.08
2019-03-22T17:34:18.189Z,62.47
2019-03-22T17:36:49.346Z,62.90
2019-03-22T17:39:20.411Z,63.39
2019-03-22T17:41:51.141Z,63.54
2019-03-22T17:44:21.911Z,63.56
2019-03-22T17:46:52.565Z,63.98
2019-03-22T17:49:23.249Z,64.23
2019-03-22T17:51:53.910Z,64.66
2019-03-22T17:54:24.932Z,65.12
2019-03-22T17:56:55.674Z,65.67
2019-03-22T17:59:26.412Z,66.45
2019-03-22T18:01:57.142Z,67.29
2019-03-22T18:04:28.107Z,67.76
2019-03-22T18:06:58.789Z,68.67
2019-03-22T18:09:29.529Z,69.16
2019-03-22T18:12:00.776Z,69.75
2019-03-22T18:14:31.631Z,70.26
2019-03-22T18:17:02.388Z,70.28
2019-03-22T18:19:33.493Z,71.12
2019-03-22T18:22:04.432Z,71.46
2019-03-22T18:24:35.119Z,71.97
2019-03-22T18:27:06.204Z,72.03
2019-03-22T18:29:36.913Z,72.56
2019-03-22T18:32:08.849Z,73.20
2019-03-22T18:34:39.537Z,73.60
2019-03-22T18:37:10.272Z,73.92
2019-03-22T18:39:41.065Z,73.92
2019-03-22T18:42:12.117Z,74.57
2019-03-22T18:44:42.847Z,75.14
2019-03-22T18:47:13.586Z,75.43
2019-03-22T18:49:44.354Z,75.78
2019-03-22T18:52:16.133Z,75.99
2019-03-22T18:54:47.069Z,76.45
2019-03-22T18:57:18.244Z,76.48
2019-03-22T18:59:49.397Z,76.67
2019-03-22T19:02:20.062Z,76.43
2019-03-22T19:04:50.761Z,76.45
2019-03-22T19:07:21.495Z,76.56
2019-03-22T19:09:52.383Z,76.87
2019-03-22T19:12:23.954Z,77.25
2019-03-22T19:14:55.172Z,77.39
2019-03-22T19:17:26.326Z,77.70
2019-03-22T19:19:57.207Z,77.93
2019-03-22T19:22:27.859Z,78.45
2019-03-22T19:24:58.584Z,78.72
2019-03-22T19:27:29.534Z,78.94
2019-03-22T19:30:00.387Z,78.96
2019-03-22T19:32:31.065Z,79.10
2019-03-22T19:35:01.912Z,79.08
2019-03-22T19:37:32.560Z,79.39
2019-03-22T19:40:03.408Z,79.82
2019-03-22T19:42:34.480Z,80.04
2019-03-22T19:45:06.733Z,80.56
2019-03-22T19:47:37.684Z,81.20
2019-03-22T19:50:08.869Z,81.25
2019-03-22T19:52:39.839Z,81.36
2019-03-22T19:55:11.645Z,81.52
2019-03-22T19:57:42.977Z,81.58
2019-03-22T20:00:14.037Z,82.07
2019-03-22T20:02:44.765Z,82.15
2019-03-22T20:05:29.316Z,82.44
2019-03-22T20:08:01.218Z,82.95
2019-03-22T20:10:31.959Z,83.55
2019-03-22T20:13:02.768Z,83.97
2019-03-22T20:15:33.781Z,84.39
2019-03-22T20:18:04.697Z,84.75
2019-03-22T20:20:36.300Z,84.96
2019-03-22T20:23:07.231Z,85.29
2019-03-22T20:25:38.028Z,85.72
2019-03-22T20:28:08.871Z,86.31
2019-03-22T20:30:39.549Z,86.43
2019-03-22T20:33:10.219Z,86.72
2019-03-22T20:35:41.623Z,86.77
2019-03-22T20:38:12.322Z,86.99
2019-03-22T20:40:42.975Z,87.33
2019-03-22T20:43:13.743Z,87.43
2019-03-22T20:45:44.752Z,87.96
2019-03-22T20:48:15.456Z,88.28
2019-03-22T20:50:46.202Z,88.40
2019-03-22T20:53:17.140Z,88.53
2019-03-22T20:55:47.831Z,88.55
2019-03-22T20:58:18.848Z,88.65
2019-03-22T21:00:49.741Z,88.63
2019-03-22T21:03:20.445Z,88.75
2019-03-22T21:05:51.306Z,88.96
2019-03-22T21:08:22.598Z,89.00
2019-03-22T21:10:53.329Z,89.06
2019-03-22T21:13:23.965Z,89.03
2019-03-22T21:15:54.617Z,89.12
2019-03-22T21:18:25.430Z,89.09
2019-03-22T21:20:56.372Z,88.88
2019-03-22T21:23:35.909Z,88.61
2019-03-22T21:26:00.336Z,88.20
2019-03-22T21:28:31.182Z,88.07
2019-03-22T21:31:02.813Z,88.52
2019-03-22T21:33:33.765Z,88.71
2019-03-22T21:36:05.021Z,89.51
2019-03-22T21:38:35.721Z,89.96
2019-03-22T21:41:06.966Z,90.26
2019-03-22T21:43:38.358Z,90.36
2019-03-22T21:46:09.003Z,90.33
2019-03-22T21:48:39.738Z,90.30
2019-03-22T21:51:10.408Z,90.58
2019-03-22T21:53:41.139Z,90.55
2019-03-22T21:56:11.852Z,90.67
2019-03-22T21:58:42.823Z,90.88
2019-03-22T22:01:13.750Z,90.98
2019-03-22T22:03:44.730Z,90.96
2019-03-22T22:06:15.671Z,91.03
2019-03-22T22:08:46.420Z,90.93
2019-03-22T22:11:17.613Z,90.83
2019-03-22T22:13:48.337Z,90.53
2019-03-22T22:16:19.348Z,90.19
2019-03-22T22:18:50.045Z,90.36
2019-03-22T22:21:21.136Z,90.66
2019-03-22T22:23:52.462Z,90.86
2019-03-22T22:26:23.152Z,90.92
2019-03-22T22:28:54.239Z,90.93
2019-03-22T22:31:25.195Z,90.90
2019-03-22T22:33:55.851Z,90.88
2019-03-22T22:36:26.525Z,90.79
2019-03-22T22:38:57.559Z,90.91
2019-03-22T22:41:28.290Z,91.02
2019-03-22T22:43:59.592Z,91.02
2019-03-22T22:46:30.595Z,91.15
2019-03-22T22:49:01.547Z,91.36
2019-03-22T22:51:32.646Z,91.27
2019-03-22T22:54:03.937Z,91.18
2019-03-22T22:56:35.014Z,91.11
2019-03-22T22:59:05.791Z,91.01
2019-03-22T23:01:36.685Z,90.98
2019-03-22T23:04:07.359Z,91.11
2019-03-22T23:06:38.124Z,91.13
2019-03-22T23:09:09.402Z,91.10
2019-03-22T23:11:40.640Z,91.42
2019-03-22T23:14:11.441Z,91.44
2019-03-22T23:16:42.134Z,91.37
2019-03-22T23:19:13.108Z,91.32
2019-03-22T23:21:43.765Z,91.20
2019-03-22T23:24:14.398Z,91.28
2019-03-22T23:26:45.398Z,91.59
2019-03-22T23:29:16.051Z,91.66
2019-03-22T23:31:49.124Z,91.75
2019-03-22T23:34:19.176Z,91.67
2019-03-22T23:36:49.980Z,91.77
2019-03-22T23:39:20.641Z,91.94
2019-03-22T23:41:51.388Z,92.00
2019-03-22T23:44:22.405Z,91.94
2019-03-22T23:46:53.174Z,92.02
2019-03-22T23:49:24.135Z,92.04
2019-03-22T23:51:55.189Z,92.07
2019-03-22T23:54:25.852Z,92.01
2019-03-22T23:56:56.525Z,91.96
2019-03-22T23:59:27.507Z,91.79
